Em Athens — V7US8 — position and weather

sailwx.info

Track history (hours):
 
Tides and Currents Weather Stations Pressure Air Temp Water Temp Dewpoint Dewpoint Depression Visibility Wind Speed Wind Dir Waves Ship Positions

Em Athens

Last reported at 2016-Aug-24 04:33 UTC. Time now 2016-Aug-24 04:47 UTC.
Position N 36°06' W 005°24'.

Length 207 m; draft 11.8 m.

Type: Ship (hazmat cat C). MMSI: 538004019.

Date/timePositionNaut miles runAvg speedWind from/ knotsBaromVisibWave heightAir tempDewpointWater temp
2016-Aug-24 04:33N 36°06' W 005°24'1 0.1
2016-Aug-23 20:33N 36°07' W 005°23'1010.0
2016-Aug-23 19:33N 35°57' W 005°28'2 0.1
2016-Aug-23 00:33N 35°59' W 005°27'9 2.6
2016-Aug-22 21:09N 36°08' W 005°25'0 0.0
2016-Aug-22 19:09N 36°08' W 005°25'1 0.2
2016-Aug-22 11:21N 36°08' W 005°24'6 6.0
2016-Aug-22 10:23N 36°05' W 005°19'118 5.1
2016-Aug-21 11:24N 36°22' W 002°54'1012.2
2016-Aug-21 10:34N 36°23' W 002°41'1312.7
2016-Aug-21 09:33N 36°25' W 002°26'1212.3
2016-Aug-21 08:32N 36°26' W 002°10'2512.5
2016-Aug-21 06:34N 36°43' W 001°47'4513.5
2016-Aug-21 03:12N 37°12' W 001°04'1013.8
2016-Aug-21 02:30N 37°19' W 000°55'1313.7
2016-Aug-21 01:33N 37°28' W 000°43'1413.9
2016-Aug-21 00:33N 37°37' W 000°31'1413.8
2016-Aug-20 23:32N 37°49' W 000°21'9311.5
2016-Aug-20 15:24N 39°22' W 000°05'1011.5
2016-Aug-20 14:33N 39°25' W 000°17'2 2.3
2016-Aug-20 13:31N 39°27' W 000°19'0 0.0
2016-Aug-20 12:31N 39°27' W 000°19'0 0.0
2016-Aug-20 11:31N 39°27' W 000°19'0 0.0
2016-Aug-20 10:31N 39°27' W 000°19'0 0.0
2016-Aug-20 09:31N 39°27' W 000°19'0 0.0
2016-Aug-20 08:31N 39°27' W 000°19'0 0.0
2016-Aug-20 07:31N 39°27' W 000°19'0 0.0
2016-Aug-20 06:31N 39°27' W 000°19'0 0.0
2016-Aug-20 05:31N 39°27' W 000°19'3 3.0
2016-Aug-20 04:33N 39°25' W 000°17'3 3.2
2016-Aug-20 03:33N 39°26' W 000°13'7 3.5
2016-Aug-20 01:31N 39°26' W 000°04'5312.1
2016-Aug-19 21:10N 39°53' E 000°54'812.7
2016-Aug-19 20:33N 39°58' E 001°03'1312.2
2016-Aug-19 19:29N 40°07' E 001°14'1212.4
2016-Aug-19 18:33N 40°17' E 001°22'1212.4
2016-Aug-19 17:33N 40°27' E 001°31'1212.3
2016-Aug-19 16:33N 40°38' E 001°39'1512.9
2016-Aug-19 15:25N 40°50' E 001°49'1313.2
2016-Aug-19 14:29N 41°01' E 001°58'1213.1
2016-Aug-19 13:32N 41°11' E 002°07'1010.3
2016-Aug-19 12:33N 41°21' E 002°10'0 0.0
2016-Aug-19 11:33N 41°21' E 002°10'0 0.0
2016-Aug-19 10:33N 41°21' E 002°10'0 0.0
2016-Aug-19 09:33N 41°21' E 002°10'0 0.0
2016-Aug-19 08:32N 41°21' E 002°10'0 0.0
2016-Aug-19 07:32N 41°21' E 002°10'1 0.9
2016-Aug-19 06:33N 41°20' E 002°10'6 6.1
2016-Aug-19 05:33N 41°14' E 002°11'0 0.2
2016-Aug-19 04:33N 41°14' E 002°11'1 0.5
2016-Aug-19 03:33N 41°14' E 002°12'4511.1
2016-Aug-18 23:29N 41°33' E 003°06'10713.1
2016-Aug-18 15:17N 42°50' E 004°48'1114.4
2016-Aug-18 14:30N 42°59' E 004°57'1313.9
2016-Aug-18 13:33N 43°10' E 005°07'1312.7
2016-Aug-18 12:32N 43°20' E 005°18'1 0.2
2016-Aug-18 04:32N 43°21' E 005°19'1010.2
2016-Aug-18 03:33N 43°13' E 005°10'8816.0
2016-Aug-17 22:03N 43°13' E 007°10'1119.7
2016-Aug-17 21:29N 43°19' E 007°23'2419.8
2016-Aug-17 20:16N 43°32' E 007°51'2320.1
2016-Aug-17 19:06N 43°45' E 008°18'1119.5
2016-Aug-17 18:33N 43°52' E 008°29'2019.6
2016-Aug-17 17:33N 44°08' E 008°45'1717.0
2016-Aug-17 16:33N 44°23' E 008°57'2 2.0
2016-Aug-17 15:28N 44°24' E 008°54'0 0.0
2016-Aug-17 14:28N 44°24' E 008°54'0 0.0
2016-Aug-17 13:31N 44°24' E 008°54'0 0.0
2016-Aug-17 12:31N 44°24' E 008°54'0 0.0
2016-Aug-17 11:31N 44°24' E 008°54'0 0.0
2016-Aug-17 10:31N 44°24' E 008°54'0 0.0
2016-Aug-17 09:31N 44°24' E 008°54'0 0.0
2016-Aug-17 08:31N 44°24' E 008°54'0 0.0
2016-Aug-17 07:31N 44°24' E 008°54'0 0.0
2016-Aug-17 06:31N 44°24' E 008°54'0 0.0
2016-Aug-17 05:25N 44°24' E 008°54'0 0.0
2016-Aug-17 04:34N 44°24' E 008°54'4 3.7
2016-Aug-17 03:33N 44°22' E 008°58'3 2.9
2016-Aug-17 02:34N 44°19' E 008°58'8 8.0
2016-Aug-17 01:33N 44°11' E 008°60'1817.8
2016-Aug-17 00:33N 43°59' E 009°18'1717.4
2016-Aug-16 23:33N 43°47' E 009°36'1717.0
2016-Aug-16 22:33N 43°35' E 009°53'1615.6
2016-Aug-16 21:33N 43°31' E 010°13'5 4.9
2016-Aug-16 20:33N 43°34' E 010°18'0 0.0
2016-Aug-16 19:33N 43°34' E 010°18'0 0.0
2016-Aug-16 18:30N 43°34' E 010°18'0 0.0
2016-Aug-16 17:33N 43°34' E 010°18'0 0.0
2016-Aug-16 16:33N 43°34' E 010°18'0 0.0
2016-Aug-16 15:33N 43°34' E 010°18'0 0.0
2016-Aug-16 14:33N 43°34' E 010°18'0 0.0
2016-Aug-16 13:33N 43°34' E 010°18'0 0.0
2016-Aug-16 12:33N 43°34' E 010°18'0 0.0
2016-Aug-16 11:27N 43°34' E 010°18'0 0.0
2016-Aug-16 10:33N 43°34' E 010°18'0 0.0
2016-Aug-16 09:33N 43°34' E 010°18'0 0.0
2016-Aug-16 08:33N 43°34' E 010°18'0 0.0
2016-Aug-16 07:33N 43°34' E 010°18'5 1.7
2016-Aug-16 04:33N 43°29' E 010°16'0 0.0
2016-Aug-16 03:33N 43°29' E 010°16'0 0.0
2016-Aug-16 02:33N 43°29' E 010°16'0 0.0
2016-Aug-16 01:33N 43°29' E 010°16'0 0.0
2016-Aug-16 00:33N 43°29' E 010°16'0 0.0
2016-Aug-15 23:33N 43°29' E 010°16'0 0.0
2016-Aug-15 22:33N 43°29' E 010°16'0 0.0
2016-Aug-15 21:30N 43°29' E 010°16'0 0.0
2016-Aug-15 20:33N 43°29' E 010°16'0 0.0
2016-Aug-15 19:33N 43°29' E 010°16'0 0.0
2016-Aug-15 18:33N 43°29' E 010°16'0 0.1
2016-Aug-15 17:33N 43°29' E 010°16'0 0.0
2016-Aug-15 16:33N 43°29' E 010°16'0 0.0
2016-Aug-15 15:33N 43°29' E 010°16'0 0.0
2016-Aug-15 14:27N 43°29' E 010°16'0 0.0
2016-Aug-15 13:33N 43°29' E 010°16'0 0.0
2016-Aug-15 12:33N 43°29' E 010°16'0 0.0
2016-Aug-15 11:34N 43°29' E 010°16'0 0.0
2016-Aug-15 10:33N 43°29' E 010°16'0 0.2
2016-Aug-15 09:33N 43°29' E 010°16'1111.0
2016-Aug-15 08:34N 43°20' E 010°08'1414.0
2016-Aug-15 07:33N 43°06' E 010°03'1312.5
2016-Aug-15 06:33N 42°54' E 009°57'2512.7
2016-Aug-15 04:33N 42°30' E 009°48'1313.2
2016-Aug-15 03:33N 42°18' E 009°55'2713.3
2016-Aug-15 01:31N 41°52' E 010°06'1713.9
2016-Aug-15 00:19N 41°36' E 010°13'1013.9
2016-Aug-14 23:33N 41°26' E 010°18'34713.3
2016-Aug-13 21:33N 36°16' E 013°39'  
Track history (hours):
 
Tides and Currents Weather Stations Pressure Air Temp Water Temp Dewpoint Dewpoint Depression Visibility Wind Speed Wind Dir Waves Ship Positions

Em Athens

Last reported at 2016-Aug-24 04:33 UTC. Time now 2016-Aug-24 04:47 UTC.
Position N 36°06' W 005°24'.

Length 207 m; draft 11.8 m.

Type: Ship (hazmat cat C). MMSI: 538004019.

Date/timePositionNaut miles runAvg speedWind from/ knotsBaromVisibWave heightAir tempDewpointWater temp
2016-Aug-24 04:33N 36°06' W 005°24'1 0.1
2016-Aug-23 20:33N 36°07' W 005°23'1010.0
2016-Aug-23 19:33N 35°57' W 005°28'2 0.1
2016-Aug-23 00:33N 35°59' W 005°27'9 2.6
2016-Aug-22 21:09N 36°08' W 005°25'0 0.0
2016-Aug-22 19:09N 36°08' W 005°25'1 0.2
2016-Aug-22 11:21N 36°08' W 005°24'6 6.0
2016-Aug-22 10:23N 36°05' W 005°19'118 5.1
2016-Aug-21 11:24N 36°22' W 002°54'1012.2
2016-Aug-21 10:34N 36°23' W 002°41'1312.7
2016-Aug-21 09:33N 36°25' W 002°26'1212.3
2016-Aug-21 08:32N 36°26' W 002°10'2512.5
2016-Aug-21 06:34N 36°43' W 001°47'4513.5
2016-Aug-21 03:12N 37°12' W 001°04'1013.8
2016-Aug-21 02:30N 37°19' W 000°55'1313.7
2016-Aug-21 01:33N 37°28' W 000°43'1413.9
2016-Aug-21 00:33N 37°37' W 000°31'1413.8
2016-Aug-20 23:32N 37°49' W 000°21'9311.5
2016-Aug-20 15:24N 39°22' W 000°05'1011.5
2016-Aug-20 14:33N 39°25' W 000°17'2 2.3
2016-Aug-20 13:31N 39°27' W 000°19'0 0.0
2016-Aug-20 12:31N 39°27' W 000°19'0 0.0
2016-Aug-20 11:31N 39°27' W 000°19'0 0.0
2016-Aug-20 10:31N 39°27' W 000°19'0 0.0
2016-Aug-20 09:31N 39°27' W 000°19'0 0.0
2016-Aug-20 08:31N 39°27' W 000°19'0 0.0
2016-Aug-20 07:31N 39°27' W 000°19'0 0.0
2016-Aug-20 06:31N 39°27' W 000°19'0 0.0
2016-Aug-20 05:31N 39°27' W 000°19'3 3.0
2016-Aug-20 04:33N 39°25' W 000°17'3 3.2
2016-Aug-20 03:33N 39°26' W 000°13'7 3.5
2016-Aug-20 01:31N 39°26' W 000°04'5312.1
2016-Aug-19 21:10N 39°53' E 000°54'812.7
2016-Aug-19 20:33N 39°58' E 001°03'1312.2
2016-Aug-19 19:29N 40°07' E 001°14'1212.4
2016-Aug-19 18:33N 40°17' E 001°22'1212.4
2016-Aug-19 17:33N 40°27' E 001°31'1212.3
2016-Aug-19 16:33N 40°38' E 001°39'1512.9
2016-Aug-19 15:25N 40°50' E 001°49'1313.2
2016-Aug-19 14:29N 41°01' E 001°58'1213.1
2016-Aug-19 13:32N 41°11' E 002°07'1010.3
2016-Aug-19 12:33N 41°21' E 002°10'0 0.0
2016-Aug-19 11:33N 41°21' E 002°10'0 0.0
2016-Aug-19 10:33N 41°21' E 002°10'0 0.0
2016-Aug-19 09:33N 41°21' E 002°10'0 0.0
2016-Aug-19 08:32N 41°21' E 002°10'0 0.0
2016-Aug-19 07:32N 41°21' E 002°10'1 0.9
2016-Aug-19 06:33N 41°20' E 002°10'6 6.1
2016-Aug-19 05:33N 41°14' E 002°11'0 0.2
2016-Aug-19 04:33N 41°14' E 002°11'1 0.5
2016-Aug-19 03:33N 41°14' E 002°12'4511.1
2016-Aug-18 23:29N 41°33' E 003°06'10713.1
2016-Aug-18 15:17N 42°50' E 004°48'1114.4
2016-Aug-18 14:30N 42°59' E 004°57'1313.9
2016-Aug-18 13:33N 43°10' E 005°07'1312.7
2016-Aug-18 12:32N 43°20' E 005°18'1 0.2
2016-Aug-18 04:32N 43°21' E 005°19'1010.2
2016-Aug-18 03:33N 43°13' E 005°10'8816.0
2016-Aug-17 22:03N 43°13' E 007°10'1119.7
2016-Aug-17 21:29N 43°19' E 007°23'2419.8
2016-Aug-17 20:16N 43°32' E 007°51'2320.1
2016-Aug-17 19:06N 43°45' E 008°18'1119.5
2016-Aug-17 18:33N 43°52' E 008°29'2019.6
2016-Aug-17 17:33N 44°08' E 008°45'1717.0
2016-Aug-17 16:33N 44°23' E 008°57'2 2.0
2016-Aug-17 15:28N 44°24' E 008°54'0 0.0
2016-Aug-17 14:28N 44°24' E 008°54'0 0.0
2016-Aug-17 13:31N 44°24' E 008°54'0 0.0
2016-Aug-17 12:31N 44°24' E 008°54'0 0.0
2016-Aug-17 11:31N 44°24' E 008°54'0 0.0
2016-Aug-17 10:31N 44°24' E 008°54'0 0.0
2016-Aug-17 09:31N 44°24' E 008°54'0 0.0
2016-Aug-17 08:31N 44°24' E 008°54'0 0.0
2016-Aug-17 07:31N 44°24' E 008°54'0 0.0
2016-Aug-17 06:31N 44°24' E 008°54'0 0.0
2016-Aug-17 05:25N 44°24' E 008°54'0 0.0
2016-Aug-17 04:34N 44°24' E 008°54'4 3.7
2016-Aug-17 03:33N 44°22' E 008°58'3 2.9
2016-Aug-17 02:34N 44°19' E 008°58'8 8.0
2016-Aug-17 01:33N 44°11' E 008°60'1817.8
2016-Aug-17 00:33N 43°59' E 009°18'1717.4
2016-Aug-16 23:33N 43°47' E 009°36'1717.0
2016-Aug-16 22:33N 43°35' E 009°53'1615.6
2016-Aug-16 21:33N 43°31' E 010°13'5 4.9
2016-Aug-16 20:33N 43°34' E 010°18'0 0.0
2016-Aug-16 19:33N 43°34' E 010°18'0 0.0
2016-Aug-16 18:30N 43°34' E 010°18'0 0.0
2016-Aug-16 17:33N 43°34' E 010°18'0 0.0
2016-Aug-16 16:33N 43°34' E 010°18'0 0.0
2016-Aug-16 15:33N 43°34' E 010°18'0 0.0
2016-Aug-16 14:33N 43°34' E 010°18'0 0.0
2016-Aug-16 13:33N 43°34' E 010°18'0 0.0
2016-Aug-16 12:33N 43°34' E 010°18'0 0.0
2016-Aug-16 11:27N 43°34' E 010°18'0 0.0
2016-Aug-16 10:33N 43°34' E 010°18'0 0.0
2016-Aug-16 09:33N 43°34' E 010°18'0 0.0
2016-Aug-16 08:33N 43°34' E 010°18'0 0.0
2016-Aug-16 07:33N 43°34' E 010°18'5 1.7
2016-Aug-16 04:33N 43°29' E 010°16'0 0.0
2016-Aug-16 03:33N 43°29' E 010°16'0 0.0
2016-Aug-16 02:33N 43°29' E 010°16'0 0.0
2016-Aug-16 01:33N 43°29' E 010°16'0 0.0
2016-Aug-16 00:33N 43°29' E 010°16'0 0.0
2016-Aug-15 23:33N 43°29' E 010°16'0 0.0
2016-Aug-15 22:33N 43°29' E 010°16'0 0.0
2016-Aug-15 21:30N 43°29' E 010°16'0 0.0
2016-Aug-15 20:33N 43°29' E 010°16'0 0.0
2016-Aug-15 19:33N 43°29' E 010°16'0 0.0
2016-Aug-15 18:33N 43°29' E 010°16'0 0.1
2016-Aug-15 17:33N 43°29' E 010°16'0 0.0
2016-Aug-15 16:33N 43°29' E 010°16'0 0.0
2016-Aug-15 15:33N 43°29' E 010°16'0 0.0
2016-Aug-15 14:27N 43°29' E 010°16'0 0.0
2016-Aug-15 13:33N 43°29' E 010°16'0 0.0
2016-Aug-15 12:33N 43°29' E 010°16'0 0.0
2016-Aug-15 11:34N 43°29' E 010°16'0 0.0
2016-Aug-15 10:33N 43°29' E 010°16'0 0.2
2016-Aug-15 09:33N 43°29' E 010°16'1111.0
2016-Aug-15 08:34N 43°20' E 010°08'1414.0
2016-Aug-15 07:33N 43°06' E 010°03'1312.5
2016-Aug-15 06:33N 42°54' E 009°57'2512.7
2016-Aug-15 04:33N 42°30' E 009°48'1313.2
2016-Aug-15 03:33N 42°18' E 009°55'2713.3
2016-Aug-15 01:31N 41°52' E 010°06'1713.9
2016-Aug-15 00:19N 41°36' E 010°13'1013.9
2016-Aug-14 23:33N 41°26' E 010°18'34713.3
2016-Aug-13 21:33N 36°16' E 013°39'  

Dump ship's entire track history